Time;durP1;ratioP1;P1;durP2;ratioP2;P2;SDS_P1;SDS_P2;PMS_P1;PMS_P2;Temp;Humidity;BMP_temperature;BMP_pressure;BME280_temperature;BME280_humidity;BME280_pressure;Samples;Min_cycle;Max_cycle;Signal;HPM_P1;HPM_P2
2021/11/05 00:00:26;;;;;;;4.68;3.25;;;;;;;;;;5048890;28;20392;-68
2021/11/05 00:02:54;;;;;;;5.13;3.75;;;;;;;;;;5050695;28;20028;-68
2021/11/05 00:05:20;;;;;;;4.72;3.17;;;;;;;;;;5049560;28;20111;-68
2021/11/05 00:07:45;;;;;;;4.70;3.40;;;;;;;;;;5048199;28;20184;-68
2021/11/05 00:10:11;;;;;;;4.57;3.58;;;;;;;;;;5045550;28;20029;-68
2021/11/05 00:12:36;;;;;;;5.30;3.20;;;;;;;;;;5046347;28;20465;-67
2021/11/05 00:15:01;;;;;;;5.78;3.30;;;;;;;;;;5047026;28;20447;-69
2021/11/05 00:17:27;;;;;;;5.22;3.60;;;;;;;;;;5048029;28;20112;-67
2021/11/05 00:19:52;;;;;;;5.22;3.72;;;;;;;;;;5046448;28;20051;-68
2021/11/05 00:22:17;;;;;;;4.38;3.13;;;;;;;;;;5049770;28;20025;-68
2021/11/05 00:24:42;;;;;;;4.43;3.47;;;;;;;;;;5049011;28;20025;-68
2021/11/05 00:27:07;;;;;;;5.50;3.67;;;;;;;;;;5043382;28;20538;-68
2021/11/05 00:29:33;;;;;;;6.05;3.80;;;;;;;;;;5046712;28;20186;-68
2021/11/05 00:31:58;;;;;;;5.50;3.58;;;;;;;;;;5048894;28;20025;-69
2021/11/05 00:34:23;;;;;;;4.80;3.55;;;;;;;;;;5045716;28;20033;-68
2021/11/05 00:36:48;;;;;;;4.95;3.40;;;;;;;;;;5049448;28;20025;-70
2021/11/05 00:39:15;;;;;;;4.80;3.58;;;;;;;;;;5048306;28;20362;-68
2021/11/05 00:41:40;;;;;;;4.40;3.20;;;;;;;;;;5049655;28;20013;-69
2021/11/05 00:44:05;;;;;;;4.97;3.33;;;;;;;;;;5046213;28;20025;-68
2021/11/05 00:46:31;;;;;;;4.70;3.20;;;;;;;;;;5047894;28;20029;-68
2021/11/05 00:48:57;;;;;;;4.78;3.60;;;;;;;;;;5041298;28;20120;-68
2021/11/05 00:51:22;;;;;;;4.47;3.20;;;;;;;;;;5049056;28;20029;-68
2021/11/05 00:53:47;;;;;;;6.65;3.53;;;;;;;;;;5049402;28;20040;-69
2021/11/05 00:56:13;;;;;;;4.97;3.53;;;;;;;;;;5048803;28;20075;-68
2021/11/05 00:58:38;;;;;;;5.40;3.70;;;;;;;;;;5047533;28;20404;-68
2021/11/05 01:01:03;;;;;;;5.82;3.90;;;;;;;;;;5047889;28;20021;-68
2021/11/05 01:03:28;;;;;;;4.40;3.50;;;;;;;;;;5048760;28;20032;-69
2021/11/05 01:05:53;;;;;;;5.57;3.70;;;;;;;;;;5049008;28;20471;-67
2021/11/05 01:08:18;;;;;;;4.78;3.20;;;;;;;;;;5041815;28;20080;-68
2021/11/05 01:10:44;;;;;;;5.30;3.40;;;;;;;;;;5046903;28;20021;-68
2021/11/05 01:13:09;;;;;;;6.25;3.65;;;;;;;;;;5048531;28;20036;-68
2021/11/05 01:15:34;;;;;;;5.78;3.65;;;;;;;;;;5047256;28;20021;-68
2021/11/05 01:18:00;;;;;;;5.57;3.88;;;;;;;;;;5047852;28;20029;-67
2021/11/05 01:20:25;;;;;;;4.53;3.45;;;;;;;;;;5038897;28;20380;-68
2021/11/05 01:22:50;;;;;;;4.82;3.70;;;;;;;;;;5047461;28;20025;-68
2021/11/05 01:25:16;;;;;;;5.00;3.50;;;;;;;;;;5048792;28;20113;-67
2021/11/05 01:27:42;;;;;;;5.22;3.85;;;;;;;;;;5047068;28;20035;-68
2021/11/05 01:30:08;;;;;;;4.68;3.28;;;;;;;;;;5047848;28;20618;-68
2021/11/05 01:32:33;;;;;;;5.20;3.78;;;;;;;;;;5045482;28;20070;-69
2021/11/05 01:34:58;;;;;;;5.53;3.80;;;;;;;;;;5048804;28;20039;-68
2021/11/05 01:37:23;;;;;;;5.63;3.70;;;;;;;;;;5044718;28;20029;-68
2021/11/05 01:39:48;;;;;;;5.13;3.35;;;;;;;;;;5047483;28;20028;-68
2021/11/05 01:42:14;;;;;;;6.13;3.95;;;;;;;;;;5048614;28;20020;-67
2021/11/05 01:44:39;;;;;;;5.20;3.72;;;;;;;;;;5047668;28;20054;-67
2021/11/05 01:47:04;;;;;;;5.13;4.00;;;;;;;;;;5048573;28;20361;-68
2021/11/05 01:49:29;;;;;;;4.25;3.38;;;;;;;;;;5047932;28;20029;-67
2021/11/05 01:51:55;;;;;;;4.55;3.40;;;;;;;;;;5048450;28;20480;-68
2021/11/05 01:54:20;;;;;;;6.82;3.90;;;;;;;;;;5047718;28;20033;-69
2021/11/05 01:56:46;;;;;;;5.53;3.65;;;;;;;;;;5046426;28;20168;-67
2021/11/05 01:59:21;;;;;;;5.30;3.67;;;;;;;;;;5047564;28;20071;-67
2021/11/05 02:01:47;;;;;;;4.63;3.65;;;;;;;;;;5040994;28;20032;-68
2021/11/05 02:04:12;;;;;;;5.18;3.78;;;;;;;;;;5047705;28;20377;-69
2021/11/05 02:06:37;;;;;;;5.05;3.47;;;;;;;;;;5048001;28;20404;-69
2021/11/05 02:09:03;;;;;;;5.60;3.95;;;;;;;;;;5045719;28;20194;-68
2021/11/05 02:11:28;;;;;;;4.65;3.63;;;;;;;;;;5043578;28;20037;-68
2021/11/05 02:13:55;;;;;;;4.95;3.70;;;;;;;;;;5046160;28;20037;-67
2021/11/05 02:16:21;;;;;;;5.63;3.92;;;;;;;;;;5045203;28;20055;-69
2021/11/05 02:18:47;;;;;;;5.65;3.92;;;;;;;;;;5048235;28;20071;-68
2021/11/05 02:21:17;;;;;;;4.93;3.65;;;;;;;;;;5047901;28;20427;-67
2021/11/05 02:23:43;;;;;;;5.93;3.70;;;;;;;;;;5052194;28;20040;-68
2021/11/05 02:26:08;;;;;;;5.22;4.03;;;;;;;;;;5051543;28;20067;-68
2021/11/05 02:28:37;;;;;;;5.20;4.13;;;;;;;;;;5050710;28;20086;-67
2021/11/05 02:31:03;;;;;;;4.70;3.90;;;;;;;;;;5051149;28;20108;-68
2021/11/05 02:33:28;;;;;;;6.93;4.38;;;;;;;;;;5047620;28;20029;-67
2021/11/05 02:35:53;;;;;;;4.85;3.90;;;;;;;;;;5051489;28;20021;-68
2021/11/05 02:38:18;;;;;;;4.70;3.85;;;;;;;;;;5044962;28;20021;-68
2021/11/05 02:40:44;;;;;;;6.50;4.25;;;;;;;;;;5047379;28;20044;-72
2021/11/05 02:43:09;;;;;;;6.22;4.20;;;;;;;;;;5051463;28;20025;-67
2021/11/05 02:45:35;;;;;;;5.55;4.10;;;;;;;;;;5045095;28;20036;-67
2021/11/05 02:48:00;;;;;;;5.65;4.43;;;;;;;;;;5052510;28;20480;-67
2021/11/05 02:50:25;;;;;;;6.75;3.97;;;;;;;;;;5052972;28;20078;-67
2021/11/05 02:52:50;;;;;;;5.82;4.47;;;;;;;;;;5050926;28;20028;-68
2021/11/05 02:55:16;;;;;;;7.57;4.40;;;;;;;;;;5049938;28;20104;-68
2021/11/05 02:57:41;;;;;;;6.32;4.28;;;;;;;;;;5050749;28;20044;-67
2021/11/05 03:00:08;;;;;;;6.05;4.50;;;;;;;;;;5050677;28;20028;-68
2021/11/05 03:02:34;;;;;;;7.15;4.35;;;;;;;;;;5039415;28;20506;-67
2021/11/05 03:04:59;;;;;;;5.82;4.47;;;;;;;;;;5049188;28;20021;-68
2021/11/05 03:07:25;;;;;;;8.77;4.20;;;;;;;;;;5050398;28;20079;-67
2021/11/05 03:09:50;;;;;;;6.13;4.40;;;;;;;;;;5047154;28;20029;-68
2021/11/05 03:12:15;;;;;;;6.22;4.10;;;;;;;;;;5050590;28;20017;-67
2021/11/05 03:14:40;;;;;;;6.63;4.82;;;;;;;;;;5049954;28;20032;-68
2021/11/05 03:17:06;;;;;;;5.72;4.22;;;;;;;;;;5051085;28;20033;-68
2021/11/05 03:19:31;;;;;;;5.57;4.10;;;;;;;;;;5047202;28;20111;-68
2021/11/05 03:21:57;;;;;;;6.15;4.25;;;;;;;;;;5044482;28;20037;-68
2021/11/05 03:24:23;;;;;;;6.25;4.20;;;;;;;;;;5050858;28;20029;-68
2021/11/05 03:26:49;;;;;;;5.78;4.20;;;;;;;;;;5051098;28;20801;-69
2021/11/05 03:29:14;;;;;;;6.28;4.25;;;;;;;;;;5049096;28;20033;-67
2021/11/05 03:31:40;;;;;;;6.07;3.85;;;;;;;;;;5047757;28;20032;-67
2021/11/05 03:34:05;;;;;;;6.80;4.05;;;;;;;;;;5045296;28;20041;-68
2021/11/05 03:36:30;;;;;;;5.95;4.13;;;;;;;;;;5046150;28;20108;-67
2021/11/05 03:38:55;;;;;;;4.93;3.70;;;;;;;;;;5050965;28;20025;-67
2021/11/05 03:41:21;;;;;;;6.22;4.05;;;;;;;;;;5046663;28;20037;-68
2021/11/05 03:43:46;;;;;;;5.13;3.63;;;;;;;;;;5051323;28;20028;-67
2021/11/05 03:46:11;;;;;;;6.32;3.95;;;;;;;;;;5049792;28;20465;-68
2021/11/05 03:48:39;;;;;;;5.47;3.95;;;;;;;;;;5055333;28;20039;-67
2021/11/05 03:51:05;;;;;;;5.18;3.80;;;;;;;;;;5050537;28;20039;-68
2021/11/05 03:53:30;;;;;;;4.90;3.45;;;;;;;;;;5050325;28;20491;-67
2021/11/05 03:55:55;;;;;;;4.72;3.60;;;;;;;;;;5051114;28;20029;-67
2021/11/05 03:58:21;;;;;;;5.25;3.80;;;;;;;;;;5048810;28;20048;-69
2021/11/05 04:00:47;;;;;;;7.25;3.67;;;;;;;;;;5049438;28;20072;-68
2021/11/05 04:03:12;;;;;;;5.65;4.03;;;;;;;;;;5050442;28;20044;-68
2021/11/05 04:05:37;;;;;;;6.32;3.75;;;;;;;;;;5050426;28;20029;-68
2021/11/05 04:08:03;;;;;;;6.05;3.60;;;;;;;;;;5048547;28;20039;-68
2021/11/05 04:10:28;;;;;;;4.50;3.70;;;;;;;;;;5044364;28;20853;-67
2021/11/05 04:12:53;;;;;;;7.20;4.03;;;;;;;;;;5047366;28;20032;-67
2021/11/05 04:15:19;;;;;;;7.72;3.97;;;;;;;;;;5049989;28;20589;-69
2021/11/05 04:17:44;;;;;;;6.78;4.45;;;;;;;;;;5049312;28;20504;-68
2021/11/05 04:20:10;;;;;;;6.15;3.60;;;;;;;;;;5052910;28;20028;-68
2021/11/05 04:22:35;;;;;;;4.75;3.78;;;;;;;;;;5046481;28;20040;-68
2021/11/05 04:25:00;;;;;;;5.50;3.92;;;;;;;;;;5050071;28;20021;-69
2021/11/05 04:27:26;;;;;;;5.93;3.88;;;;;;;;;;5047091;28;20021;-69
2021/11/05 04:29:51;;;;;;;5.65;3.60;;;;;;;;;;5047944;28;20120;-67
2021/11/05 04:32:17;;;;;;;6.00;4.20;;;;;;;;;;5048653;28;20017;-70
2021/11/05 04:34:42;;;;;;;5.35;3.90;;;;;;;;;;5049365;28;20476;-68
2021/11/05 04:37:07;;;;;;;7.18;3.72;;;;;;;;;;5048802;28;20516;-67
2021/11/05 04:39:32;;;;;;;5.35;3.83;;;;;;;;;;5048968;28;20037;-67
2021/11/05 04:41:58;;;;;;;5.88;3.60;;;;;;;;;;5050044;28;20033;-68
2021/11/05 04:44:23;;;;;;;6.18;4.35;;;;;;;;;;5045157;28;20009;-68
2021/11/05 04:46:48;;;;;;;5.55;4.00;;;;;;;;;;5046866;28;20052;-69
2021/11/05 04:49:14;;;;;;;6.32;4.10;;;;;;;;;;5050223;28;20087;-67
2021/11/05 04:51:39;;;;;;;5.50;4.05;;;;;;;;;;5048262;28;20021;-68
2021/11/05 04:54:06;;;;;;;5.18;3.85;;;;;;;;;;5047368;28;20033;-69
2021/11/05 04:56:31;;;;;;;5.30;3.92;;;;;;;;;;5049314;28;20031;-68
2021/11/05 04:58:56;;;;;;;5.55;3.72;;;;;;;;;;5049228;28;20546;-69
2021/11/05 05:01:21;;;;;;;6.45;4.05;;;;;;;;;;5045690;28;20049;-67
2021/11/05 05:03:47;;;;;;;5.70;4.15;;;;;;;;;;5049685;28;20021;-70
2021/11/05 05:06:12;;;;;;;7.00;4.50;;;;;;;;;;5049106;28;20108;-68
2021/11/05 05:08:39;;;;;;;6.28;4.45;;;;;;;;;;5043237;28;20056;-68
2021/11/05 05:11:04;;;;;;;6.28;4.25;;;;;;;;;;5028476;28;20052;-68
2021/11/05 05:13:29;;;;;;;6.68;4.47;;;;;;;;;;5044042;28;20049;-68
2021/11/05 05:15:54;;;;;;;8.60;4.60;;;;;;;;;;5047159;28;20029;-67
2021/11/05 05:18:20;;;;;;;5.60;4.25;;;;;;;;;;5047249;28;20021;-68
2021/11/05 05:20:45;;;;;;;8.40;4.85;;;;;;;;;;5048307;28;20104;-68
2021/11/05 05:23:11;;;;;;;7.05;4.70;;;;;;;;;;5047875;28;20029;-68
2021/11/05 05:25:37;;;;;;;6.57;4.47;;;;;;;;;;5047936;28;20036;-68
2021/11/05 05:28:03;;;;;;;6.93;4.68;;;;;;;;;;5045790;28;20059;-68
2021/11/05 05:30:28;;;;;;;10.05;5.00;;;;;;;;;;5042311;28;20029;-67
2021/11/05 05:32:53;;;;;;;5.50;4.00;;;;;;;;;;5048951;28;20033;-69
2021/11/05 05:35:19;;;;;;;6.38;4.40;;;;;;;;;;5043225;28;20029;-68
2021/11/05 05:37:44;;;;;;;5.45;3.90;;;;;;;;;;5048882;28;20066;-67
2021/11/05 05:40:10;;;;;;;6.47;4.60;;;;;;;;;;5043365;28;20021;-68
2021/11/05 05:42:35;;;;;;;7.50;4.80;;;;;;;;;;5036497;28;20017;-68
2021/11/05 05:45:00;;;;;;;6.65;4.97;;;;;;;;;;5046481;28;20146;-68
2021/11/05 05:47:26;;;;;;;8.95;5.82;;;;;;;;;;5048628;28;20381;-68
2021/11/05 05:49:52;;;;;;;7.57;4.72;;;;;;;;;;5049473;28;20031;-68
2021/11/05 05:52:17;;;;;;;7.57;4.88;;;;;;;;;;5045390;28;20114;-70
2021/11/05 05:54:42;;;;;;;7.85;4.70;;;;;;;;;;5045579;28;20093;-69
2021/11/05 05:57:08;;;;;;;7.28;4.78;;;;;;;;;;5047161;28;20029;-68
2021/11/05 05:59:33;;;;;;;7.55;4.57;;;;;;;;;;5047657;28;20061;-68
2021/11/05 06:01:58;;;;;;;7.40;4.78;;;;;;;;;;5047933;28;20135;-68
2021/11/05 06:04:26;;;;;;;6.13;3.83;;;;;;;;;;5044643;28;20368;-68
2021/11/05 06:06:51;;;;;;;6.10;4.78;;;;;;;;;;5046672;28;20116;-69
2021/11/05 06:09:16;;;;;;;6.63;4.85;;;;;;;;;;5046220;28;20066;-69
2021/11/05 06:11:41;;;;;;;6.75;4.70;;;;;;;;;;5042594;28;20021;-68
2021/11/05 06:14:06;;;;;;;6.63;4.32;;;;;;;;;;5045790;28;20025;-68
2021/11/05 06:16:32;;;;;;;6.82;4.90;;;;;;;;;;5048039;28;20449;-68
2021/11/05 06:18:57;;;;;;;6.25;4.63;;;;;;;;;;5049998;28;20021;-69
2021/11/05 06:21:24;;;;;;;7.13;4.60;;;;;;;;;;5042575;28;20040;-68
2021/11/05 06:23:51;;;;;;;8.70;4.60;;;;;;;;;;5047623;28;20021;-69
2021/11/05 06:26:16;;;;;;;6.57;4.70;;;;;;;;;;5047879;28;20099;-68
2021/11/05 06:28:42;;;;;;;9.40;5.10;;;;;;;;;;5047215;28;20488;-69
2021/11/05 06:31:07;;;;;;;7.03;4.85;;;;;;;;;;5043244;28;20063;-68
2021/11/05 06:33:32;;;;;;;7.55;5.30;;;;;;;;;;5045737;28;20033;-69
2021/11/05 06:35:57;;;;;;;7.82;4.85;;;;;;;;;;5045037;28;20037;-68
2021/11/05 06:38:23;;;;;;;7.22;4.95;;;;;;;;;;5044673;28;20399;-68
2021/11/05 06:40:48;;;;;;;6.72;5.10;;;;;;;;;;5046108;28;20059;-69
2021/11/05 06:43:13;;;;;;;7.22;4.53;;;;;;;;;;5043526;28;20028;-69
2021/11/05 06:45:39;;;;;;;8.85;5.50;;;;;;;;;;5047440;28;20104;-69
2021/11/05 06:48:04;;;;;;;8.18;4.93;;;;;;;;;;5040081;28;20021;-68
2021/11/05 06:50:30;;;;;;;8.10;5.20;;;;;;;;;;5046828;28;20092;-69
2021/11/05 06:52:55;;;;;;;7.93;5.25;;;;;;;;;;5048100;28;20040;-69
2021/11/05 06:55:20;;;;;;;7.22;5.07;;;;;;;;;;5047882;28;20032;-69
2021/11/05 06:57:46;;;;;;;9.05;5.57;;;;;;;;;;5040009;28;20377;-68
2021/11/05 07:00:11;;;;;;;8.80;5.68;;;;;;;;;;5040147;28;20036;-65
2021/11/05 07:02:41;;;;;;;8.00;5.22;;;;;;;;;;5048127;28;20023;-65
2021/11/05 07:05:06;;;;;;;7.20;4.95;;;;;;;;;;5047419;28;20044;-65
2021/11/05 07:07:32;;;;;;;9.18;6.25;;;;;;;;;;5048609;28;20025;-65
2021/11/05 07:09:57;;;;;;;6.82;5.15;;;;;;;;;;5049703;28;20037;-66
2021/11/05 07:12:22;;;;;;;8.82;5.28;;;;;;;;;;5050912;28;20067;-65
2021/11/05 07:14:48;;;;;;;12.40;5.97;;;;;;;;;;5050974;28;20476;-65
2021/11/05 07:17:13;;;;;;;8.20;5.55;;;;;;;;;;5051988;28;20052;-66
2021/11/05 07:19:38;;;;;;;6.65;5.00;;;;;;;;;;5055029;28;20039;-65
2021/11/05 07:22:03;;;;;;;8.15;5.50;;;;;;;;;;5050137;28;20040;-65
2021/11/05 07:24:33;;;;;;;8.60;5.57;;;;;;;;;;5051024;28;20020;-65
2021/11/05 07:26:59;;;;;;;7.57;5.35;;;;;;;;;;5051194;28;20432;-66
2021/11/05 07:29:28;;;;;;;7.55;5.15;;;;;;;;;;5048903;28;20079;-66
2021/11/05 07:31:58;;;;;;;8.27;5.40;;;;;;;;;;5049986;28;20101;-67
2021/11/05 07:34:23;;;;;;;8.93;5.38;;;;;;;;;;5044674;28;20055;-65
2021/11/05 07:36:49;;;;;;;8.00;5.18;;;;;;;;;;5046213;28;20611;-65
2021/11/05 07:39:14;;;;;;;9.57;5.65;;;;;;;;;;5044355;28;20036;-65
2021/11/05 07:41:40;;;;;;;6.80;5.25;;;;;;;;;;5051211;28;20025;-66
2021/11/05 07:44:05;;;;;;;7.07;4.65;;;;;;;;;;5048640;28;20120;-66
2021/11/05 07:46:30;;;;;;;7.80;5.35;;;;;;;;;;5050635;28;20096;-66
2021/11/05 07:48:55;;;;;;;7.35;5.47;;;;;;;;;;5051005;28;20479;-69
2021/11/05 07:51:21;;;;;;;6.93;4.88;;;;;;;;;;5051019;28;20047;-65
2021/11/05 07:53:46;;;;;;;7.93;4.57;;;;;;;;;;5050853;28;20162;-65
2021/11/05 07:56:12;;;;;;;6.78;4.57;;;;;;;;;;5050963;28;20033;-66
2021/11/05 07:58:37;;;;;;;6.05;4.13;;;;;;;;;;5050642;28;20501;-66
2021/11/05 08:01:03;;;;;;;8.07;4.50;;;;;;;;;;5050761;28;20049;-65
2021/11/05 08:03:28;;;;;;;7.45;4.68;;;;;;;;;;5050687;28;20453;-65
2021/11/05 08:05:54;;;;;;;4.82;3.60;;;;;;;;;;5050696;28;20029;-65
2021/11/05 08:08:19;;;;;;;8.40;4.15;;;;;;;;;;5050870;28;20495;-66
2021/11/05 08:10:44;;;;;;;5.90;4.40;;;;;;;;;;5050178;28;20036;-64
2021/11/05 08:13:11;;;;;;;8.23;3.90;;;;;;;;;;5050646;28;20063;-66
2021/11/05 08:15:36;;;;;;;4.68;3.78;;;;;;;;;;5050459;28;20437;-65
2021/11/05 08:18:01;;;;;;;6.07;3.72;;;;;;;;;;5051820;28;20021;-66
2021/11/05 08:20:26;;;;;;;5.55;3.75;;;;;;;;;;5051416;28;20052;-69
2021/11/05 08:22:51;;;;;;;7.47;4.20;;;;;;;;;;5050555;28;20017;-65
2021/11/05 08:25:18;;;;;;;5.35;3.72;;;;;;;;;;5050263;28;20111;-66
2021/11/05 08:27:43;;;;;;;5.18;3.55;;;;;;;;;;5050113;28;20009;-65
2021/11/05 08:30:20;;;;;;;5.75;3.70;;;;;;;;;;5049160;28;20036;-65
2021/11/05 08:32:46;;;;;;;6.45;3.78;;;;;;;;;;5050313;28;20025;-65
2021/11/05 08:35:11;;;;;;;8.07;4.10;;;;;;;;;;5050455;28;20036;-65
2021/11/05 08:37:37;;;;;;;5.35;4.43;;;;;;;;;;5050268;28;20025;-65
2021/11/05 08:40:03;;;;;;;5.85;3.92;;;;;;;;;;5050053;28;20087;-65
2021/11/05 08:42:28;;;;;;;6.38;4.60;;;;;;;;;;5049916;28;20116;-65
2021/11/05 08:44:54;;;;;;;6.70;3.97;;;;;;;;;;5049761;28;20021;-65
2021/11/05 08:47:19;;;;;;;6.65;4.20;;;;;;;;;;5050259;28;20029;-65
2021/11/05 08:49:47;;;;;;;7.85;4.35;;;;;;;;;;5050660;28;20381;-66
2021/11/05 08:52:12;;;;;;;7.32;4.00;;;;;;;;;;5049832;28;20021;-65
2021/11/05 08:54:38;;;;;;;5.35;3.78;;;;;;;;;;5050134;28;20044;-65
2021/11/05 08:57:03;;;;;;;4.93;3.20;;;;;;;;;;5049830;28;20021;-65
2021/11/05 08:59:28;;;;;;;5.90;3.85;;;;;;;;;;5049469;28;20505;-66
2021/11/05 09:01:53;;;;;;;5.50;3.80;;;;;;;;;;5049747;28;20032;-66
2021/11/05 09:04:19;;;;;;;5.72;3.50;;;;;;;;;;5049730;28;20040;-65
2021/11/05 09:06:44;;;;;;;5.47;3.53;;;;;;;;;;5049493;28;20032;-65
2021/11/05 09:09:10;;;;;;;5.20;3.60;;;;;;;;;;5049642;28;20435;-65
2021/11/05 09:11:35;;;;;;;5.95;3.67;;;;;;;;;;5049498;28;20025;-65
2021/11/05 09:14:00;;;;;;;5.93;3.95;;;;;;;;;;5049862;28;20138;-64
2021/11/05 09:16:28;;;;;;;6.45;4.07;;;;;;;;;;5049477;28;20032;-66
2021/11/05 09:18:53;;;;;;;6.05;4.05;;;;;;;;;;5055189;28;20032;-66
2021/11/05 09:21:19;;;;;;;5.68;3.88;;;;;;;;;;5049393;28;20381;-66
2021/11/05 09:23:44;;;;;;;6.18;4.20;;;;;;;;;;5049332;28;20033;-65
2021/11/05 09:26:09;;;;;;;5.90;4.05;;;;;;;;;;5049473;28;20480;-65
2021/11/05 09:28:35;;;;;;;6.28;3.97;;;;;;;;;;5048845;28;20460;-66
2021/11/05 09:31:02;;;;;;;6.80;4.60;;;;;;;;;;5048738;28;20131;-66
2021/11/05 09:33:27;;;;;;;5.95;4.30;;;;;;;;;;5049009;28;20040;-67
2021/11/05 09:35:53;;;;;;;5.90;4.22;;;;;;;;;;5049578;28;20044;-65
2021/11/05 09:38:18;;;;;;;5.70;3.83;;;;;;;;;;5049241;28;20033;-65
2021/11/05 09:40:44;;;;;;;5.70;3.83;;;;;;;;;;5049291;28;20071;-65
2021/11/05 09:43:09;;;;;;;6.57;4.20;;;;;;;;;;5049267;28;20094;-66
2021/11/05 09:45:34;;;;;;;5.28;3.90;;;;;;;;;;5049027;28;20024;-65
2021/11/05 09:48:00;;;;;;;5.40;4.03;;;;;;;;;;5050253;28;20063;-65
2021/11/05 09:50:26;;;;;;;9.00;4.10;;;;;;;;;;5051665;28;20075;-66
2021/11/05 09:52:51;;;;;;;5.25;3.60;;;;;;;;;;5049238;28;20017;-65
2021/11/05 09:55:19;;;;;;;5.53;3.88;;;;;;;;;;5049109;28;20036;-65
2021/11/05 09:57:44;;;;;;;5.95;3.67;;;;;;;;;;5048995;28;20048;-65
2021/11/05 10:00:10;;;;;;;4.97;3.58;;;;;;;;;;5048949;28;20036;-65
2021/11/05 10:02:36;;;;;;;5.18;3.85;;;;;;;;;;5048940;28;20029;-65
2021/11/05 10:05:03;;;;;;;5.43;3.60;;;;;;;;;;5049238;28;20039;-66
2021/11/05 10:07:28;;;;;;;5.55;4.00;;;;;;;;;;5048508;28;20064;-66
2021/11/05 10:09:54;;;;;;;5.05;3.80;;;;;;;;;;5049175;28;20118;-65
2021/11/05 10:12:21;;;;;;;7.35;4.28;;;;;;;;;;5048870;28;20112;-65
2021/11/05 10:14:53;;;;;;;6.35;3.30;;;;;;;;;;5048783;28;20025;-65
2021/11/05 10:17:19;;;;;;;4.40;3.30;;;;;;;;;;5043061;28;20116;-64
2021/11/05 10:20:04;;;;;;;5.15;3.55;;;;;;;;;;5050510;28;20461;-65
2021/11/05 10:22:36;;;;;;;5.90;2.80;;;;;;;;;;5044182;28;20033;-66
2021/11/05 10:25:21;;;;;;;5.82;3.30;;;;;;;;;;5048825;28;20086;-66
2021/11/05 10:27:47;;;;;;;5.10;3.20;;;;;;;;;;5045410;28;20419;-65
2021/11/05 10:30:13;;;;;;;4.88;3.15;;;;;;;;;;5045420;28;20048;-66
2021/11/05 10:32:41;;;;;;;4.63;3.17;;;;;;;;;;5045757;28;20037;-64
2021/11/05 10:35:14;;;;;;;5.50;3.38;;;;;;;;;;5045513;28;20033;-65
2021/11/05 10:37:41;;;;;;;5.47;3.30;;;;;;;;;;5045686;28;20152;-64
2021/11/05 10:40:07;;;;;;;5.35;3.30;;;;;;;;;;5046052;28;20033;-65
2021/11/05 10:42:34;;;;;;;5.05;3.38;;;;;;;;;;5046609;28;20029;-65
2021/11/05 10:45:14;;;;;;;5.47;3.28;;;;;;;;;;5049126;28;20175;-66
2021/11/05 10:48:06;;;;;;;3.83;2.45;;;;;;;;;;5049436;28;20048;-65
2021/11/05 10:50:33;;;;;;;4.45;2.42;;;;;;;;;;5045529;28;20082;-65
2021/11/05 10:53:02;;;;;;;6.88;2.55;;;;;;;;;;5043687;28;20491;-66
2021/11/05 10:55:47;;;;;;;4.15;2.20;;;;;;;;;;5049320;28;20029;-65
2021/11/05 10:58:20;;;;;;;3.65;2.40;;;;;;;;;;5049328;28;20578;-64
2021/11/05 11:00:46;;;;;;;4.13;2.63;;;;;;;;;;5049006;28;20179;-66
2021/11/05 11:03:13;;;;;;;3.55;2.70;;;;;;;;;;5048642;28;20033;-65
2021/11/05 11:05:40;;;;;;;3.80;2.80;;;;;;;;;;5051167;28;20025;-64
2021/11/05 11:08:09;;;;;;;4.63;3.13;;;;;;;;;;5051567;28;20110;-65
2021/11/05 11:10:35;;;;;;;4.82;2.95;;;;;;;;;;5045035;28;20809;-65
2021/11/05 11:13:00;;;;;;;3.97;2.63;;;;;;;;;;5051804;28;20520;-65
2021/11/05 11:15:36;;;;;;;4.38;2.45;;;;;;;;;;5051694;28;20108;-65
2021/11/05 11:18:02;;;;;;;3.78;2.72;;;;;;;;;;5053032;28;20368;-65
2021/11/05 11:20:28;;;;;;;4.32;2.65;;;;;;;;;;5055484;28;20025;-65
2021/11/05 11:22:53;;;;;;;4.45;3.00;;;;;;;;;;5051649;28;20028;-66
2021/11/05 11:25:19;;;;;;;4.45;2.67;;;;;;;;;;5051739;28;20024;-65
2021/11/05 11:27:45;;;;;;;3.90;2.35;;;;;;;;;;5051553;28;20060;-64
2021/11/05 11:30:10;;;;;;;3.33;2.47;;;;;;;;;;5051241;28;20048;-64
2021/11/05 11:32:35;;;;;;;4.78;2.38;;;;;;;;;;5051392;28;20029;-65
2021/11/05 11:35:00;;;;;;;2.83;2.10;;;;;;;;;;5051340;28;20128;-65
2021/11/05 11:37:26;;;;;;;3.35;2.17;;;;;;;;;;5051200;28;20017;-65
2021/11/05 11:39:51;;;;;;;3.78;2.22;;;;;;;;;;5051159;28;20029;-65
2021/11/05 11:42:17;;;;;;;3.67;2.50;;;;;;;;;;5050985;28;20021;-65
2021/11/05 11:44:42;;;;;;;2.70;2.22;;;;;;;;;;5050883;28;20866;-65
2021/11/05 11:47:08;;;;;;;4.00;2.28;;;;;;;;;;5051031;28;20070;-66
2021/11/05 11:49:44;;;;;;;2.17;1.63;;;;;;;;;;5053860;28;20040;-66
2021/11/05 11:52:18;;;;;;;3.97;1.98;;;;;;;;;;5050818;28;20050;-65
2021/11/05 11:54:45;;;;;;;3.30;1.75;;;;;;;;;;5050469;28;20224;-65
2021/11/05 11:57:11;;;;;;;3.03;2.00;;;;;;;;;;5050679;28;20061;-65
2021/11/05 11:59:38;;;;;;;3.83;1.75;;;;;;;;;;5050554;28;20049;-66
2021/11/05 12:02:23;;;;;;;3.72;1.80;;;;;;;;;;5050859;28;20051;-66
2021/11/05 12:04:48;;;;;;;3.17;2.10;;;;;;;;;;5044553;28;20384;-66
2021/11/05 12:07:14;;;;;;;3.25;2.13;;;;;;;;;;5050918;28;20029;-65
2021/11/05 12:09:40;;;;;;;2.42;1.67;;;;;;;;;;5050217;28;20033;-66
2021/11/05 12:12:20;;;;;;;2.03;1.40;;;;;;;;;;5050621;28;20028;-68
2021/11/05 12:14:58;;;;;;;2.95;1.52;;;;;;;;;;5044921;28;20025;-69
2021/11/05 12:17:23;;;;;;;2.80;1.42;;;;;;;;;;5050275;28;20055;-66
2021/11/05 12:19:48;;;;;;;2.22;1.58;;;;;;;;;;5051731;28;20125;-65
2021/11/05 12:22:15;;;;;;;1.90;1.13;;;;;;;;;;5050605;28;20024;-68
2021/11/05 12:24:41;;;;;;;1.25;0.70;;;;;;;;;;5050596;28;20036;-66
2021/11/05 12:27:12;;;;;;;0.90;0.70;;;;;;;;;;5050375;28;20021;-66
2021/11/05 12:29:37;;;;;;;2.75;0.73;;;;;;;;;;5044101;28;20047;-66
2021/11/05 12:32:14;;;;;;;1.75;0.77;;;;;;;;;;5044053;28;20400;-65
2021/11/05 12:34:45;;;;;;;1.15;0.90;;;;;;;;;;5044879;28;20505;-66
2021/11/05 12:37:10;;;;;;;1.08;0.80;;;;;;;;;;5050479;28;20017;-65
2021/11/05 12:39:37;;;;;;;2.15;1.20;;;;;;;;;;5050133;28;20489;-65
2021/11/05 12:42:02;;;;;;;1.40;1.00;;;;;;;;;;5050733;28;20102;-65
2021/11/05 12:44:28;;;;;;;1.65;0.85;;;;;;;;;;5050041;28;20495;-64
2021/11/05 12:46:54;;;;;;;2.17;0.85;;;;;;;;;;5049829;28;20021;-65
2021/11/05 12:49:20;;;;;;;1.23;0.90;;;;;;;;;;5056254;28;20369;-65
2021/11/05 12:51:46;;;;;;;2.33;0.95;;;;;;;;;;5049622;28;20059;-66
2021/11/05 12:54:13;;;;;;;2.05;0.93;;;;;;;;;;5050072;28;20032;-65
2021/11/05 12:56:40;;;;;;;1.42;0.85;;;;;;;;;;5049734;28;20048;-65
2021/11/05 12:59:11;;;;;;;1.30;0.80;;;;;;;;;;5049365;28;20052;-66
2021/11/05 13:01:36;;;;;;;1.33;0.80;;;;;;;;;;5049703;28;20051;-66
2021/11/05 13:04:12;;;;;;;1.35;0.70;;;;;;;;;;5049593;28;20021;-66
2021/11/05 13:06:39;;;;;;;2.38;0.80;;;;;;;;;;5042199;28;20079;-66
2021/11/05 13:09:20;;;;;;;0.93;0.77;;;;;;;;;;5045571;28;20041;-66
2021/11/05 13:12:15;;;;;;;1.35;0.60;;;;;;;;;;5045237;28;20082;-64
2021/11/05 13:14:42;;;;;;;2.20;0.80;;;;;;;;;;5039984;28;20041;-66
2021/11/05 13:17:21;;;;;;;0.75;0.70;;;;;;;;;;5043401;28;20031;-65
2021/11/05 13:19:55;;;;;;;1.48;0.70;;;;;;;;;;5048934;28;20656;-65
2021/11/05 13:22:21;;;;;;;1.40;0.70;;;;;;;;;;5035586;28;20495;-65
2021/11/05 13:24:47;;;;;;;1.50;0.73;;;;;;;;;;5046396;28;20463;-65
2021/11/05 13:27:12;;;;;;;1.00;0.80;;;;;;;;;;5042856;28;20021;-65
2021/11/05 13:29:37;;;;;;;2.17;0.60;;;;;;;;;;5046106;28;20036;-65
2021/11/05 13:32:28;;;;;;;1.00;0.70;;;;;;;;;;5046110;28;20672;-62
2021/11/05 13:34:55;;;;;;;1.60;0.80;;;;;;;;;;5027567;28;20038;-62
2021/11/05 13:37:25;;;;;;;1.33;0.88;;;;;;;;;;5045748;28;20068;-63
2021/11/05 13:39:50;;;;;;;;;;;;;;;;;;5032675;28;20033;-63
2021/11/05 13:42:19;;;;;;;1.90;1.05;;;;;;;;;;5040224;28;19905;-62
2021/11/05 13:44:45;;;;;;;3.73;1.37;;;;;;;;;;5034061;28;20288;-62
2021/11/05 13:47:14;;;;;;;1.23;1.08;;;;;;;;;;5030754;28;20890;-63
2021/11/05 13:49:39;;;;;;;2.42;1.35;;;;;;;;;;5043311;28;20044;-62
2021/11/05 13:52:09;;;;;;;1.95;1.40;;;;;;;;;;5048811;28;20103;-62
2021/11/05 13:54:40;;;;;;;2.53;1.70;;;;;;;;;;5048995;28;20029;-62
2021/11/05 13:57:05;;;;;;;2.88;1.45;;;;;;;;;;5049203;28;20048;-61
2021/11/05 13:59:31;;;;;;;3.38;1.50;;;;;;;;;;5048771;28;20496;-63
2021/11/05 14:01:58;;;;;;;4.13;1.77;;;;;;;;;;5049109;28;20056;-62
2021/11/05 14:04:24;;;;;;;2.50;1.80;;;;;;;;;;5049156;28;20429;-62
2021/11/05 14:06:50;;;;;;;9.45;1.90;;;;;;;;;;5049242;28;20159;-63
2021/11/05 14:09:19;;;;;;;3.05;1.70;;;;;;;;;;5048757;28;20033;-62
2021/11/05 14:11:46;;;;;;;2.72;1.90;;;;;;;;;;5048992;28;20032;-62
2021/11/05 14:14:25;;;;;;;3.08;1.70;;;;;;;;;;5048888;28;20031;-63
2021/11/05 14:16:54;;;;;;;3.22;2.00;;;;;;;;;;5050234;28;20028;-63
2021/11/05 14:19:21;;;;;;;7.97;2.20;;;;;;;;;;5053013;28;20101;-62
2021/11/05 14:21:56;;;;;;;4.53;2.17;;;;;;;;;;5052770;28;20021;-62
2021/11/05 14:24:23;;;;;;;3.13;2.17;;;;;;;;;;5053082;28;20104;-62
2021/11/05 14:27:03;;;;;;;2.47;1.85;;;;;;;;;;5052801;28;20102;-62
2021/11/05 14:29:31;;;;;;;2.95;2.00;;;;;;;;;;5052561;28;20089;-62
2021/11/05 14:32:04;;;;;;;3.05;2.17;;;;;;;;;;5052212;28;20107;-63
2021/11/05 14:34:49;;;;;;;2.90;2.22;;;;;;;;;;5052341;28;20511;-62
2021/11/05 14:37:16;;;;;;;3.97;2.42;;;;;;;;;;5052000;28;20029;-62
2021/11/05 14:39:46;;;;;;;4.05;2.60;;;;;;;;;;5052490;28;20017;-62